createdAt,value
2022-08-28T00:00:53.633Z,27.56
2022-08-28T00:03:44.815Z,27.55
2022-08-28T00:06:37.318Z,27.55
2022-08-28T00:09:28.206Z,27.54
2022-08-28T00:12:20.243Z,27.53
2022-08-28T00:15:14.736Z,27.51
2022-08-28T00:18:05.877Z,27.51
2022-08-28T00:20:57.337Z,27.51
2022-08-28T00:23:48.424Z,27.50
2022-08-28T00:26:55.809Z,27.50
2022-08-28T00:29:46.376Z,27.49
2022-08-28T00:32:36.500Z,27.48
2022-08-28T00:35:27.083Z,27.46
2022-08-28T00:38:19.950Z,27.46
2022-08-28T00:41:11.088Z,27.45
2022-08-28T00:44:14.187Z,27.44
2022-08-28T00:47:05.725Z,27.41
2022-08-28T00:49:58.255Z,27.40
2022-08-28T00:52:51.989Z,27.38
2022-08-28T00:55:42.892Z,27.37
2022-08-28T00:58:35.587Z,27.37
2022-08-28T01:01:27.117Z,27.37
2022-08-28T01:04:20.661Z,27.38
2022-08-28T01:07:15.214Z,27.38
2022-08-28T01:10:06.856Z,27.37
2022-08-28T01:12:58.768Z,27.35
2022-08-28T01:15:50.612Z,27.35
2022-08-28T01:18:42.263Z,27.34
2022-08-28T01:21:40.982Z,27.33
2022-08-28T01:24:32.455Z,27.33
2022-08-28T01:27:24.932Z,27.32
2022-08-28T01:30:18.096Z,27.30
2022-08-28T01:33:08.532Z,27.29
2022-08-28T01:35:59.934Z,27.30
2022-08-28T01:38:56.000Z,27.29
2022-08-28T01:41:49.377Z,27.30
2022-08-28T01:44:39.742Z,27.29
2022-08-28T01:47:30.011Z,27.28
2022-08-28T01:50:23.097Z,27.28
2022-08-28T01:53:19.113Z,27.27
2022-08-28T01:56:13.870Z,27.26
2022-08-28T01:59:05.554Z,27.26
2022-08-28T02:01:56.178Z,27.26
2022-08-28T02:04:48.308Z,27.26
2022-08-28T02:07:39.260Z,27.25
2022-08-28T02:10:32.078Z,27.24
2022-08-28T02:13:26.957Z,27.23
2022-08-28T02:16:18.300Z,27.23
2022-08-28T02:19:08.978Z,27.23
2022-08-28T02:21:59.505Z,27.23
2022-08-28T02:24:50.182Z,27.23
2022-08-28T02:27:41.275Z,27.23
2022-08-28T02:30:32.931Z,27.24
2022-08-28T02:33:24.035Z,27.25
2022-08-28T02:36:16.773Z,27.23
2022-08-28T02:39:07.499Z,27.22
2022-08-28T02:41:57.792Z,27.20
2022-08-28T02:44:48.890Z,27.17
2022-08-28T02:47:40.112Z,27.16
2022-08-28T02:50:31.583Z,27.16
2022-08-28T02:53:23.241Z,27.16
2022-08-28T02:56:14.027Z,27.17
2022-08-28T02:59:06.487Z,27.17
2022-08-28T03:01:57.666Z,27.17
2022-08-28T03:04:48.508Z,27.15
2022-08-28T03:07:39.156Z,27.14
2022-08-28T03:10:30.127Z,27.13
2022-08-28T03:13:23.066Z,27.12
2022-08-28T03:16:17.944Z,27.10
2022-08-28T03:19:08.504Z,27.09
2022-08-28T03:21:59.000Z,27.08
2022-08-28T03:24:50.509Z,27.08
2022-08-28T03:27:41.313Z,27.09
2022-08-28T03:30:32.205Z,27.09
2022-08-28T03:33:23.108Z,27.08
2022-08-28T03:36:16.110Z,27.07
2022-08-28T03:39:08.345Z,27.04
2022-08-28T03:41:58.641Z,27.01
2022-08-28T03:44:49.636Z,26.99
2022-08-28T03:47:41.806Z,26.97
2022-08-28T03:50:33.266Z,26.96
2022-08-28T03:53:26.141Z,26.95
2022-08-28T03:56:22.291Z,26.94
2022-08-28T03:59:12.576Z,26.94
2022-08-28T04:02:03.816Z,26.95
2022-08-28T04:04:54.535Z,26.95
2022-08-28T04:07:45.109Z,26.97
2022-08-28T04:10:36.789Z,26.98
2022-08-28T04:13:29.075Z,27.00
2022-08-28T04:16:20.307Z,27.02
2022-08-28T04:19:11.104Z,27.02
2022-08-28T04:22:02.189Z,27.02
2022-08-28T04:24:53.027Z,27.02
2022-08-28T04:27:43.938Z,27.01
2022-08-28T04:30:33.697Z,26.97
2022-08-28T04:33:25.742Z,26.95
2022-08-28T04:36:18.011Z,26.93
2022-08-28T04:39:11.228Z,26.91
2022-08-28T04:42:02.215Z,26.90
2022-08-28T04:44:56.877Z,26.87
2022-08-28T04:47:47.413Z,26.87
2022-08-28T04:50:40.850Z,26.84
2022-08-28T04:53:32.906Z,26.82
2022-08-28T04:56:23.487Z,26.80
2022-08-28T04:59:16.558Z,26.80
2022-08-28T05:02:07.977Z,26.81
2022-08-28T05:04:59.365Z,26.82
2022-08-28T05:07:49.715Z,26.84
2022-08-28T05:10:40.362Z,26.85
2022-08-28T05:13:30.530Z,26.86
2022-08-28T05:16:22.826Z,26.86
2022-08-28T05:19:13.573Z,26.86
2022-08-28T05:22:03.459Z,26.86
2022-08-28T05:24:53.734Z,26.86
2022-08-28T05:27:45.097Z,26.87
2022-08-28T05:30:36.044Z,26.89
2022-08-28T05:33:26.395Z,26.90
2022-08-28T05:36:18.520Z,26.91
2022-08-28T05:39:12.117Z,26.93
2022-08-28T05:42:02.832Z,26.93
2022-08-28T05:44:54.600Z,26.94
2022-08-28T05:47:45.450Z,26.95
2022-08-28T05:50:38.562Z,26.95
2022-08-28T05:53:29.154Z,26.96
2022-08-28T05:56:21.602Z,27.07
2022-08-28T05:59:12.807Z,27.38
2022-08-28T06:02:04.432Z,27.58
2022-08-28T06:04:54.686Z,27.71
2022-08-28T06:07:47.361Z,27.80
2022-08-28T06:10:44.103Z,27.86
2022-08-28T06:13:37.652Z,27.91
2022-08-28T06:16:29.490Z,27.91
2022-08-28T06:19:23.514Z,27.96
2022-08-28T06:22:14.987Z,27.99
2022-08-28T06:25:08.133Z,28.01
2022-08-28T06:27:59.183Z,28.02
2022-08-28T06:31:15.942Z,28.01
2022-08-28T06:34:01.923Z,27.97
2022-08-28T06:36:54.191Z,27.93
2022-08-28T06:39:44.831Z,27.88
2022-08-28T06:42:34.813Z,27.91
2022-08-28T06:45:25.558Z,27.93
2022-08-28T06:48:19.953Z,27.92
2022-08-28T06:51:13.093Z,27.93
2022-08-28T06:54:03.402Z,27.95
2022-08-28T06:56:54.406Z,28.01
2022-08-28T06:59:46.127Z,28.06
2022-08-28T07:02:37.870Z,28.07
2022-08-28T07:05:28.184Z,28.14
2022-08-28T07:08:18.643Z,28.25
2022-08-28T07:11:18.625Z,28.31
2022-08-28T07:14:09.887Z,28.36
2022-08-28T07:17:00.722Z,28.37
2022-08-28T07:19:51.895Z,28.38
2022-08-28T07:22:43.309Z,28.38
2022-08-28T07:25:34.412Z,28.34
2022-08-28T07:28:25.761Z,28.33
2022-08-28T07:31:20.356Z,28.36
2022-08-28T07:34:11.244Z,28.39
2022-08-28T07:37:04.430Z,28.41
2022-08-28T07:39:55.439Z,28.46
2022-08-28T07:43:03.123Z,28.56
2022-08-28T07:46:00.390Z,28.61
2022-08-28T07:48:51.601Z,28.64
2022-08-28T07:51:42.900Z,28.74
2022-08-28T07:54:38.315Z,28.82
2022-08-28T07:57:31.558Z,28.88
2022-08-28T08:00:21.965Z,28.93
2022-08-28T08:03:12.555Z,28.95
2022-08-28T08:06:05.887Z,28.98
2022-08-28T08:08:57.178Z,29.05
2022-08-28T08:11:47.774Z,29.09
2022-08-28T08:14:40.206Z,29.14
2022-08-28T08:17:30.595Z,29.13
2022-08-28T08:20:22.268Z,29.15
2022-08-28T08:23:12.589Z,29.14
2022-08-28T08:26:05.108Z,29.13
2022-08-28T08:28:56.111Z,29.10
2022-08-28T08:31:47.492Z,29.12
2022-08-28T08:34:39.812Z,29.21
2022-08-28T08:37:30.437Z,29.30
2022-08-28T08:40:23.794Z,29.39
2022-08-28T08:43:15.922Z,29.42
2022-08-28T08:46:06.203Z,29.47
2022-08-28T08:48:57.962Z,29.49
2022-08-28T08:51:56.174Z,29.46
2022-08-28T08:54:59.239Z,29.50
2022-08-28T08:57:59.474Z,29.61
2022-08-28T09:00:59.933Z,29.71
2022-08-28T09:03:59.320Z,29.79
2022-08-28T09:06:53.794Z,29.84
2022-08-28T09:09:48.304Z,29.83
2022-08-28T09:12:55.090Z,29.86
2022-08-28T09:15:50.724Z,29.91
2022-08-28T09:18:42.679Z,29.95
2022-08-28T09:21:40.348Z,30.01
2022-08-28T09:24:33.835Z,30.09
2022-08-28T09:27:30.666Z,30.21
2022-08-28T09:30:33.117Z,30.33
2022-08-28T09:33:43.305Z,30.39
2022-08-28T09:36:38.403Z,30.47
2022-08-28T09:39:31.029Z,30.55
2022-08-28T09:42:42.885Z,30.66
2022-08-28T09:45:33.494Z,30.77
2022-08-28T09:48:25.447Z,30.84
2022-08-28T09:51:30.454Z,30.92
2022-08-28T09:54:31.861Z,31.01
2022-08-28T09:57:23.358Z,31.13
2022-08-28T10:00:15.395Z,31.24
2022-08-28T10:03:15.143Z,31.36
2022-08-28T10:06:13.677Z,31.43
2022-08-28T10:09:12.393Z,31.48
2022-08-28T10:12:11.293Z,31.54
2022-08-28T10:15:10.233Z,31.60
2022-08-28T10:18:21.288Z,31.66
2022-08-28T10:21:22.442Z,31.73
2022-08-28T10:24:27.630Z,31.79
2022-08-28T10:27:30.595Z,31.84
2022-08-28T10:30:23.103Z,31.90
2022-08-28T10:33:45.777Z,31.97
2022-08-28T10:36:37.831Z,31.98
2022-08-28T10:39:43.888Z,31.93
2022-08-28T10:42:38.081Z,31.95
2022-08-28T10:45:31.392Z,31.98
2022-08-28T10:48:26.106Z,32.03
2022-08-28T10:51:34.797Z,32.07
2022-08-28T10:54:31.413Z,32.14
2022-08-28T10:57:36.065Z,32.17
2022-08-28T11:00:30.152Z,32.20
2022-08-28T11:03:34.488Z,32.20
2022-08-28T11:06:34.130Z,32.19
2022-08-28T11:09:35.362Z,32.18
2022-08-28T11:12:43.636Z,32.18
2022-08-28T11:15:49.748Z,32.18
2022-08-28T11:19:01.458Z,32.16
2022-08-28T11:21:57.182Z,32.10
2022-08-28T11:25:02.377Z,32.07
2022-08-28T11:28:18.545Z,32.06
2022-08-28T11:31:31.682Z,32.02
2022-08-28T11:34:57.313Z,32.05
2022-08-28T11:37:50.219Z,32.11
2022-08-28T11:41:12.219Z,32.17
2022-08-28T11:44:39.543Z,32.21
2022-08-28T11:47:45.712Z,32.25
2022-08-28T11:50:57.531Z,32.30
2022-08-28T11:54:02.022Z,32.35
2022-08-28T11:57:05.966Z,32.29
2022-08-28T12:00:21.199Z,32.27
2022-08-28T12:03:17.747Z,32.26
2022-08-28T12:06:10.717Z,32.25
2022-08-28T12:09:08.205Z,32.15
2022-08-28T12:12:02.280Z,32.06
2022-08-28T12:15:03.942Z,32.02
2022-08-28T12:17:57.362Z,31.99
2022-08-28T12:21:06.151Z,31.96
2022-08-28T12:24:09.879Z,31.96
2022-08-28T12:27:04.964Z,31.92
2022-08-28T12:29:58.752Z,31.89
2022-08-28T12:32:55.053Z,31.80
2022-08-28T12:35:44.862Z,31.72
2022-08-28T12:38:35.732Z,31.50
2022-08-28T12:41:26.346Z,31.39
2022-08-28T12:44:16.969Z,31.34
2022-08-28T12:47:08.178Z,31.36
2022-08-28T12:49:58.675Z,31.38
2022-08-28T12:52:53.402Z,31.37
2022-08-28T12:55:44.635Z,31.38
2022-08-28T12:58:39.408Z,31.33
2022-08-28T13:01:33.902Z,31.27
2022-08-28T13:04:34.442Z,31.23
2022-08-28T13:07:29.805Z,31.15
2022-08-28T13:10:25.563Z,31.11
2022-08-28T13:13:23.838Z,31.05
2022-08-28T13:16:34.746Z,31.04
2022-08-28T13:19:30.982Z,30.92
2022-08-28T13:25:26.982Z,30.74
2022-08-28T13:28:18.860Z,30.70
2022-08-28T13:31:12.045Z,30.74
2022-08-28T13:34:24.662Z,30.78
2022-08-28T13:37:43.866Z,30.82
2022-08-28T13:40:57.393Z,30.86
2022-08-28T13:43:49.733Z,30.85
2022-08-28T13:46:39.949Z,30.86
2022-08-28T13:49:30.408Z,30.87
2022-08-28T13:52:20.631Z,30.89
2022-08-28T13:55:11.910Z,30.85
2022-08-28T13:58:02.598Z,30.80
2022-08-28T14:00:54.150Z,30.74
2022-08-28T14:03:45.531Z,30.64
2022-08-28T14:06:37.637Z,30.59
2022-08-28T14:09:28.876Z,30.45
2022-08-28T14:12:18.732Z,30.32
2022-08-28T14:15:09.926Z,30.16
2022-08-28T14:17:59.982Z,29.95
2022-08-28T14:20:49.602Z,29.85
2022-08-28T14:23:39.285Z,29.82
2022-08-28T14:26:30.496Z,29.80
2022-08-28T14:29:21.061Z,29.80
2022-08-28T14:32:12.091Z,29.81
2022-08-28T14:35:04.330Z,29.81
2022-08-28T14:37:54.217Z,29.78
2022-08-28T14:40:46.238Z,29.66
2022-08-28T14:43:36.702Z,29.63
2022-08-28T14:46:30.555Z,29.66
2022-08-28T14:49:22.512Z,29.63
2022-08-28T14:52:12.875Z,29.63
2022-08-28T14:55:03.671Z,29.63
2022-08-28T14:57:54.485Z,29.59
2022-08-28T15:00:46.196Z,29.62
2022-08-28T15:03:37.819Z,29.67
2022-08-28T15:06:28.495Z,29.72
2022-08-28T15:09:20.446Z,29.75
2022-08-28T15:12:11.691Z,29.73
2022-08-28T15:15:02.206Z,29.71
2022-08-28T15:17:52.753Z,29.70
2022-08-28T15:20:45.494Z,29.70
2022-08-28T15:23:36.094Z,29.73
2022-08-28T15:26:29.457Z,29.74
2022-08-28T15:29:20.494Z,29.75
2022-08-28T15:32:11.106Z,29.72
2022-08-28T15:35:01.512Z,29.75
2022-08-28T15:37:53.624Z,29.75
2022-08-28T15:41:00.978Z,29.74
2022-08-28T15:43:51.800Z,29.70
2022-08-28T15:46:42.905Z,29.63
2022-08-28T15:49:38.783Z,29.58
2022-08-28T15:52:34.835Z,29.56
2022-08-28T15:55:26.303Z,29.56
2022-08-28T15:58:16.983Z,29.53
2022-08-28T16:01:08.476Z,29.53
2022-08-28T16:03:59.761Z,29.53
2022-08-28T16:06:51.402Z,29.53
2022-08-28T16:09:52.793Z,29.50
2022-08-28T16:12:44.221Z,29.41
2022-08-28T16:15:38.904Z,29.35
2022-08-28T16:18:28.914Z,29.30
2022-08-28T16:21:21.139Z,29.28
2022-08-28T16:24:13.275Z,29.27
2022-08-28T16:27:04.556Z,29.22
2022-08-28T16:29:57.643Z,29.16
2022-08-28T16:32:47.819Z,29.07
2022-08-28T16:35:42.399Z,28.98
2022-08-28T16:38:40.322Z,28.92
2022-08-28T16:41:34.276Z,28.95
2022-08-28T16:44:26.728Z,28.99
2022-08-28T16:47:17.163Z,29.02
2022-08-28T16:50:11.945Z,29.00
2022-08-28T16:53:06.852Z,28.99
2022-08-28T16:55:58.001Z,29.03
2022-08-28T16:58:49.158Z,29.08
2022-08-28T17:01:43.665Z,29.11
2022-08-28T17:04:35.541Z,29.12
2022-08-28T17:07:25.686Z,29.11
2022-08-28T17:10:19.305Z,29.10
2022-08-28T17:13:09.433Z,29.08
2022-08-28T17:15:59.396Z,29.07
2022-08-28T17:18:52.767Z,29.06
2022-08-28T17:22:01.023Z,29.01
2022-08-28T17:24:52.622Z,28.95
2022-08-28T17:27:44.877Z,28.94
2022-08-28T17:30:36.016Z,28.88
2022-08-28T17:33:25.756Z,28.81
2022-08-28T17:36:30.698Z,28.80
2022-08-28T17:39:25.326Z,28.77
2022-08-28T17:42:15.615Z,28.72
2022-08-28T17:45:06.010Z,28.69
2022-08-28T17:47:55.766Z,28.69
2022-08-28T17:50:46.794Z,28.68
2022-08-28T17:53:36.573Z,28.67
2022-08-28T17:56:33.183Z,28.69
2022-08-28T17:59:27.777Z,28.70
2022-08-28T18:02:18.167Z,28.68
2022-08-28T18:05:10.566Z,28.71
2022-08-28T18:08:01.338Z,28.72
2022-08-28T18:10:51.187Z,28.75
2022-08-28T18:13:40.998Z,28.77
2022-08-28T18:16:32.810Z,28.76
2022-08-28T18:19:24.145Z,28.77
2022-08-28T18:22:14.897Z,28.86
2022-08-28T18:25:04.776Z,28.95
2022-08-28T18:27:56.014Z,29.04
2022-08-28T18:30:47.513Z,29.09
2022-08-28T18:33:38.502Z,29.09
2022-08-28T18:36:29.704Z,29.08
2022-08-28T18:39:29.596Z,29.09
2022-08-28T18:42:20.707Z,29.14
2022-08-28T18:45:12.120Z,29.17
2022-08-28T18:48:02.875Z,29.20
2022-08-28T18:50:52.644Z,29.19
2022-08-28T18:53:43.712Z,29.16
2022-08-28T18:56:34.022Z,29.12
2022-08-28T18:59:26.418Z,29.08
2022-08-28T19:02:18.493Z,29.02
2022-08-28T19:05:10.283Z,28.96
2022-08-28T19:08:00.044Z,28.93
2022-08-28T19:10:50.394Z,28.93
2022-08-28T19:13:41.142Z,28.90
2022-08-28T19:16:31.608Z,28.84
2022-08-28T19:19:22.536Z,28.81
2022-08-28T19:22:14.458Z,28.80
2022-08-28T19:25:07.036Z,28.85
2022-08-28T19:28:05.108Z,28.90
2022-08-28T19:30:55.995Z,28.96
2022-08-28T19:33:46.741Z,29.01
2022-08-28T19:36:37.803Z,29.02
2022-08-28T19:39:31.029Z,29.04
2022-08-28T19:42:23.069Z,29.05
2022-08-28T19:45:15.421Z,29.04
2022-08-28T19:48:07.064Z,29.01
2022-08-28T19:51:06.406Z,28.98
2022-08-28T19:54:13.471Z,28.97
2022-08-28T19:57:04.673Z,28.98
2022-08-28T19:59:55.282Z,28.97
2022-08-28T20:02:46.015Z,28.99
2022-08-28T20:05:38.182Z,28.96
2022-08-28T20:08:31.421Z,28.95
2022-08-28T20:11:25.283Z,28.95
2022-08-28T20:14:17.716Z,28.96
2022-08-28T20:17:08.218Z,28.96
2022-08-28T20:20:03.000Z,28.96
2022-08-28T20:22:54.012Z,28.93
2022-08-28T20:25:49.796Z,28.90
2022-08-28T20:28:40.930Z,28.84
2022-08-28T20:31:31.567Z,28.81
2022-08-28T20:34:22.987Z,28.79
2022-08-28T20:37:13.042Z,28.81
2022-08-28T20:40:06.652Z,28.81
2022-08-28T20:43:01.016Z,28.82
2022-08-28T20:45:52.462Z,28.83
2022-08-28T20:48:42.604Z,28.80
2022-08-28T20:51:50.205Z,28.80
2022-08-28T20:54:42.183Z,28.83
2022-08-28T20:57:32.416Z,28.85
2022-08-28T21:00:23.316Z,28.88
2022-08-28T21:03:14.539Z,28.88
2022-08-28T21:06:05.375Z,28.89
2022-08-28T21:08:56.653Z,28.87
2022-08-28T21:11:47.015Z,28.87
2022-08-28T21:14:37.135Z,28.88
2022-08-28T21:17:29.448Z,28.86
2022-08-28T21:20:21.945Z,28.85
2022-08-28T21:23:12.137Z,28.82
2022-08-28T21:26:02.316Z,28.80
2022-08-28T21:28:52.258Z,28.79
2022-08-28T21:31:42.686Z,28.79
2022-08-28T21:34:32.503Z,28.80
2022-08-28T21:37:23.096Z,28.80
2022-08-28T21:40:15.060Z,28.80
2022-08-28T21:43:04.831Z,28.80
2022-08-28T21:46:02.544Z,28.87
2022-08-28T21:48:53.463Z,28.91
2022-08-28T21:51:44.112Z,28.92
2022-08-28T21:54:34.392Z,28.93
2022-08-28T21:57:25.317Z,28.93
2022-08-28T22:00:18.962Z,28.90
2022-08-28T22:03:09.780Z,28.90
2022-08-28T22:06:00.042Z,28.90
2022-08-28T22:08:50.866Z,28.89
2022-08-28T22:11:41.634Z,28.91
2022-08-28T22:14:32.798Z,28.91
2022-08-28T22:17:22.971Z,28.93
2022-08-28T22:20:14.105Z,28.95
2022-08-28T22:23:11.825Z,28.92
2022-08-28T22:26:05.874Z,28.85
2022-08-28T22:28:57.475Z,28.77
2022-08-28T22:31:47.668Z,28.71
2022-08-28T22:34:43.470Z,28.65
2022-08-28T22:37:36.342Z,28.60
2022-08-28T22:40:28.243Z,28.55
2022-08-28T22:43:20.467Z,28.51
2022-08-28T22:46:12.697Z,28.45
2022-08-28T22:49:03.377Z,28.40
2022-08-28T22:51:54.365Z,28.37
2022-08-28T22:54:44.883Z,28.34
2022-08-28T22:57:35.218Z,28.33
2022-08-28T23:00:28.733Z,28.30
2022-08-28T23:03:19.433Z,28.27
2022-08-28T23:06:10.290Z,28.24
2022-08-28T23:09:00.923Z,28.22
2022-08-28T23:11:53.590Z,28.21
2022-08-28T23:14:48.240Z,28.21
2022-08-28T23:17:39.355Z,28.19
2022-08-28T23:20:33.121Z,28.17
2022-08-28T23:23:26.473Z,28.16
2022-08-28T23:26:18.254Z,28.15
2022-08-28T23:29:08.838Z,28.15
2022-08-28T23:32:00.174Z,28.14
2022-08-28T23:34:53.134Z,28.14
2022-08-28T23:37:48.701Z,28.12
2022-08-28T23:40:42.705Z,28.11
2022-08-28T23:43:34.380Z,28.10
2022-08-28T23:46:24.801Z,28.08
2022-08-28T23:49:15.756Z,28.07
2022-08-28T23:52:08.756Z,28.05
2022-08-28T23:55:02.820Z,28.03
2022-08-28T23:57:54.475Z,28.01
